Time;durP1;ratioP1;P1;durP2;ratioP2;P2;SDS_P1;SDS_P2;PMS_P1;PMS_P2;Temp;Humidity;BMP_temperature;BMP_pressure;BME280_temperature;BME280_humidity;BME280_pressure;Samples;Min_cycle;Max_cycle;Signal;HPM_P1;HPM_P2
2021/07/11 00:00:30;;;;;;;25.73;24.23;;;;;;;;;;5031937;28;20453;-68
2021/07/11 00:02:58;;;;;;;24.90;23.60;;;;;;;;;;5030974;28;20452;-68
2021/07/11 00:05:25;;;;;;;25.50;24.10;;;;;;;;;;5050532;28;20550;-68
2021/07/11 00:07:53;;;;;;;25.67;24.07;;;;;;;;;;5051252;28;20451;-68
2021/07/11 00:10:20;;;;;;;25.30;23.80;;;;;;;;;;5032053;28;20948;-68
2021/07/11 00:12:49;;;;;;;24.60;23.30;;;;;;;;;;5047084;28;20955;-68
2021/07/11 00:15:17;;;;;;;25.23;23.77;;;;;;;;;;5051817;28;20483;-68
2021/07/11 00:17:45;;;;;;;25.53;24.13;;;;;;;;;;5054593;28;20487;-67
2021/07/11 00:20:14;;;;;;;24.17;22.97;;;;;;;;;;5054244;28;20451;-67
2021/07/11 00:22:42;;;;;;;25.20;23.80;;;;;;;;;;5054164;28;20833;-68
2021/07/11 00:25:10;;;;;;;24.80;23.57;;;;;;;;;;5053699;28;21025;-68
2021/07/11 00:27:37;;;;;;;25.40;24.07;;;;;;;;;;5054444;28;20960;-67
2021/07/11 00:30:06;;;;;;;24.43;23.13;;;;;;;;;;5041207;28;20812;-67
2021/07/11 00:32:34;;;;;;;25.23;23.93;;;;;;;;;;5053103;28;20454;-68
2021/07/11 00:35:01;;;;;;;25.03;23.77;;;;;;;;;;5045469;28;20856;-67
2021/07/11 00:37:28;;;;;;;25.40;24.10;;;;;;;;;;5053901;28;20494;-67
2021/07/11 00:39:55;;;;;;;25.40;24.00;;;;;;;;;;5045447;28;20824;-67
2021/07/11 00:42:22;;;;;;;25.20;23.90;;;;;;;;;;5034105;28;20452;-68
2021/07/11 00:44:49;;;;;;;26.20;24.90;;;;;;;;;;5037030;28;20468;-68
2021/07/11 00:47:18;;;;;;;25.70;24.40;;;;;;;;;;5045261;28;20947;-68
2021/07/11 00:49:46;;;;;;;26.20;24.60;;;;;;;;;;5054177;28;20448;-68
2021/07/11 00:52:14;;;;;;;25.40;23.77;;;;;;;;;;5053807;28;20463;-68
2021/07/11 00:54:41;;;;;;;26.97;25.20;;;;;;;;;;5054047;28;20533;-68
2021/07/11 00:57:09;;;;;;;25.43;24.00;;;;;;;;;;5053909;28;20484;-67
2021/07/11 00:59:38;;;;;;;25.90;24.60;;;;;;;;;;5053760;28;20452;-68
2021/07/11 01:02:09;;;;;;;25.60;24.20;;;;;;;;;;5051789;28;20460;-68
2021/07/11 01:04:41;;;;;;;25.60;24.20;;;;;;;;;;5053419;28;21005;-66
2021/07/11 01:07:10;;;;;;;25.07;23.77;;;;;;;;;;5041515;28;20447;-66
2021/07/11 01:09:40;;;;;;;26.60;24.90;;;;;;;;;;5048213;28;20452;-67
2021/07/11 01:12:10;;;;;;;27.90;25.50;;;;;;;;;;5053522;28;20447;-67
2021/07/11 01:14:38;;;;;;;27.10;25.30;;;;;;;;;;5052987;28;20996;-67
2021/07/11 01:17:06;;;;;;;27.20;25.17;;;;;;;;;;5053118;28;20506;-67
2021/07/11 01:19:41;;;;;;;26.90;25.10;;;;;;;;;;5053473;28;20451;-67
2021/07/11 01:22:14;;;;;;;28.03;26.30;;;;;;;;;;5033604;28;20483;-66
2021/07/11 01:24:46;;;;;;;27.77;25.67;;;;;;;;;;5049413;28;21016;-66
2021/07/11 01:27:15;;;;;;;27.70;25.90;;;;;;;;;;5051605;28;20974;-67
2021/07/11 01:29:43;;;;;;;27.93;26.10;;;;;;;;;;5053354;28;20460;-66
2021/07/11 01:32:11;;;;;;;27.63;25.73;;;;;;;;;;5052167;28;20452;-67
2021/07/11 01:34:39;;;;;;;28.20;26.10;;;;;;;;;;5052924;28;20478;-67
2021/07/11 01:37:06;;;;;;;26.53;25.03;;;;;;;;;;5053478;28;20491;-67
2021/07/11 01:39:33;;;;;;;27.87;26.20;;;;;;;;;;5052854;28;20819;-67
2021/07/11 01:42:01;;;;;;;27.93;26.33;;;;;;;;;;5036404;28;20457;-67
2021/07/11 01:44:29;;;;;;;26.60;25.10;;;;;;;;;;5040203;28;20468;-67
2021/07/11 01:46:57;;;;;;;25.90;24.30;;;;;;;;;;5043756;28;20453;-67
2021/07/11 01:49:24;;;;;;;25.57;24.17;;;;;;;;;;5039090;28;20467;-67
2021/07/11 01:51:52;;;;;;;26.50;24.97;;;;;;;;;;5052704;28;20451;-67
2021/07/11 01:54:19;;;;;;;25.43;24.13;;;;;;;;;;5051620;28;20479;-67
2021/07/11 01:56:46;;;;;;;25.73;24.13;;;;;;;;;;5051937;28;20456;-67
2021/07/11 01:59:13;;;;;;;25.53;24.13;;;;;;;;;;5052182;28;20481;-67
2021/07/11 02:01:42;;;;;;;25.47;24.07;;;;;;;;;;5051869;28;20482;-67
2021/07/11 02:04:09;;;;;;;25.13;23.60;;;;;;;;;;5052855;28;20472;-67
2021/07/11 02:06:38;;;;;;;24.30;23.00;;;;;;;;;;5051806;28;20943;-67
2021/07/11 02:09:05;;;;;;;24.90;23.70;;;;;;;;;;5052334;28;20463;-67
2021/07/11 02:11:32;;;;;;;26.00;24.70;;;;;;;;;;5051552;28;20458;-66
2021/07/11 02:14:02;;;;;;;24.63;23.33;;;;;;;;;;5052460;28;20483;-67
2021/07/11 02:16:31;;;;;;;25.40;24.03;;;;;;;;;;5052217;28;20452;-67
2021/07/11 02:19:00;;;;;;;25.10;23.80;;;;;;;;;;5052306;28;21013;-66
2021/07/11 02:21:28;;;;;;;25.50;24.20;;;;;;;;;;5051850;28;20482;-67
2021/07/11 02:23:55;;;;;;;24.43;23.20;;;;;;;;;;5052254;28;20838;-67
2021/07/11 02:26:23;;;;;;;24.63;23.33;;;;;;;;;;5051715;28;20452;-67
2021/07/11 02:28:51;;;;;;;26.23;24.63;;;;;;;;;;5052455;28;20454;-67
2021/07/11 02:31:19;;;;;;;23.70;22.50;;;;;;;;;;5051210;28;20456;-66
2021/07/11 02:33:47;;;;;;;25.43;24.07;;;;;;;;;;5052006;28;20894;-66
2021/07/11 02:36:18;;;;;;;25.27;23.97;;;;;;;;;;5051827;28;20479;-67
2021/07/11 02:38:48;;;;;;;25.23;23.93;;;;;;;;;;5052171;28;20475;-67
2021/07/11 02:41:16;;;;;;;25.07;23.77;;;;;;;;;;5051662;28;20462;-67
2021/07/11 02:43:44;;;;;;;25.90;24.60;;;;;;;;;;5031833;28;20472;-66
2021/07/11 02:46:11;;;;;;;24.37;22.87;;;;;;;;;;5032042;28;20453;-67
2021/07/11 02:48:42;;;;;;;25.43;24.13;;;;;;;;;;5050307;28;20463;-67
2021/07/11 02:51:10;;;;;;;24.70;23.50;;;;;;;;;;5052066;28;20436;-67
2021/07/11 02:53:39;;;;;;;25.10;23.90;;;;;;;;;;5050970;28;20472;-67
2021/07/11 02:56:07;;;;;;;24.87;23.57;;;;;;;;;;5051931;28;20447;-66
2021/07/11 02:58:36;;;;;;;24.40;23.10;;;;;;;;;;5052181;28;20491;-68
2021/07/11 03:01:03;;;;;;;25.50;23.90;;;;;;;;;;5051012;28;20452;-67
2021/07/11 03:03:30;;;;;;;24.37;23.10;;;;;;;;;;5050860;28;20920;-67
2021/07/11 03:05:57;;;;;;;23.90;22.60;;;;;;;;;;5051156;28;20494;-67
2021/07/11 03:08:24;;;;;;;24.43;23.13;;;;;;;;;;5051978;28;20459;-66
2021/07/11 03:10:55;;;;;;;24.83;23.50;;;;;;;;;;5051148;28;20458;-67
2021/07/11 03:13:22;;;;;;;23.80;22.60;;;;;;;;;;5031996;28;20571;-67
2021/07/11 03:15:49;;;;;;;25.03;23.67;;;;;;;;;;5044423;28;20459;-67
2021/07/11 03:18:18;;;;;;;24.57;23.27;;;;;;;;;;5051085;28;20486;-67
2021/07/11 03:20:47;;;;;;;24.63;23.23;;;;;;;;;;5051152;28;20455;-66
2021/07/11 03:23:14;;;;;;;24.40;22.43;;;;;;;;;;5051491;28;20443;-67
2021/07/11 03:25:42;;;;;;;25.10;23.80;;;;;;;;;;5051103;28;20477;-67
2021/07/11 03:28:10;;;;;;;25.27;24.00;;;;;;;;;;5051235;28;20458;-67
2021/07/11 03:30:43;;;;;;;25.00;23.70;;;;;;;;;;5050866;28;21198;-66
2021/07/11 03:33:10;;;;;;;24.53;23.23;;;;;;;;;;5051059;28;20535;-66
2021/07/11 03:35:39;;;;;;;24.67;23.37;;;;;;;;;;5051508;28;20447;-67
2021/07/11 03:38:07;;;;;;;25.23;23.60;;;;;;;;;;5051340;28;20484;-66
2021/07/11 03:40:35;;;;;;;25.17;23.77;;;;;;;;;;5050201;28;20455;-66
2021/07/11 03:43:04;;;;;;;25.00;23.70;;;;;;;;;;5051119;28;20462;-66
2021/07/11 03:45:33;;;;;;;25.53;23.83;;;;;;;;;;5051120;28;20490;-65
2021/07/11 03:48:04;;;;;;;25.90;24.10;;;;;;;;;;5037638;28;20455;-67
2021/07/11 03:50:31;;;;;;;25.93;24.33;;;;;;;;;;5040006;28;20455;-66
2021/07/11 03:53:01;;;;;;;25.90;24.50;;;;;;;;;;5055232;28;20826;-66
2021/07/11 03:55:29;;;;;;;24.60;23.20;;;;;;;;;;5054276;28;20471;-66
2021/07/11 03:57:57;;;;;;;26.40;24.90;;;;;;;;;;5055180;28;20498;-66
2021/07/11 04:00:24;;;;;;;25.20;23.70;;;;;;;;;;5054234;28;20475;-66
2021/07/11 04:02:54;;;;;;;25.50;24.10;;;;;;;;;;5054814;28;20822;-66
2021/07/11 04:05:22;;;;;;;24.90;23.60;;;;;;;;;;5054492;28;20467;-66
2021/07/11 04:07:50;;;;;;;25.03;23.63;;;;;;;;;;5054858;28;20451;-66
2021/07/11 04:10:18;;;;;;;25.03;23.63;;;;;;;;;;5054740;28;20470;-66
2021/07/11 04:12:45;;;;;;;24.73;23.43;;;;;;;;;;5054378;28;20455;-66
2021/07/11 04:15:13;;;;;;;24.20;22.90;;;;;;;;;;5054173;28;20471;-65
2021/07/11 04:17:41;;;;;;;25.33;24.03;;;;;;;;;;5054117;28;20485;-67
2021/07/11 04:20:11;;;;;;;24.77;23.47;;;;;;;;;;5054033;28;20448;-66
2021/07/11 04:22:39;;;;;;;24.50;23.30;;;;;;;;;;5054278;28;20844;-67
2021/07/11 04:25:06;;;;;;;25.30;24.00;;;;;;;;;;5062088;22;20496;-68
2021/07/11 04:27:33;;;;;;;25.13;23.73;;;;;;;;;;5035651;28;20452;-68
2021/07/11 04:30:01;;;;;;;25.37;23.80;;;;;;;;;;5036121;28;20460;-69
2021/07/11 04:32:28;;;;;;;24.73;23.43;;;;;;;;;;5019707;28;20472;-68
2021/07/11 04:34:55;;;;;;;25.27;23.77;;;;;;;;;;5016567;28;20475;-69
2021/07/11 04:37:23;;;;;;;26.20;24.70;;;;;;;;;;5033020;28;20463;-69
2021/07/11 04:39:51;;;;;;;25.50;24.00;;;;;;;;;;5022451;28;20461;-70
2021/07/11 04:42:18;;;;;;;25.40;24.00;;;;;;;;;;5015480;28;20941;-69
2021/07/11 04:44:45;;;;;;;26.33;24.83;;;;;;;;;;5027392;28;20575;-70
2021/07/11 04:47:13;;;;;;;24.87;23.47;;;;;;;;;;5019744;28;20515;-69
2021/07/11 04:49:40;;;;;;;25.03;23.57;;;;;;;;;;5015759;28;20521;-69
2021/07/11 04:52:07;;;;;;;25.50;24.10;;;;;;;;;;5015795;28;20460;-70
2021/07/11 04:54:36;;;;;;;24.60;23.30;;;;;;;;;;5024635;28;20857;-69
2021/07/11 04:57:04;;;;;;;25.60;24.10;;;;;;;;;;5035456;28;20828;-69
2021/07/11 04:59:31;;;;;;;24.90;23.50;;;;;;;;;;5026803;28;20485;-69
2021/07/11 05:01:58;;;;;;;24.90;23.50;;;;;;;;;;5014518;28;20822;-69
2021/07/11 05:04:26;;;;;;;25.90;24.30;;;;;;;;;;5016415;28;20469;-70
2021/07/11 05:06:53;;;;;;;25.33;23.93;;;;;;;;;;5015483;28;20457;-69
2021/07/11 05:09:20;;;;;;;24.83;23.53;;;;;;;;;;5016185;28;20451;-69
2021/07/11 05:11:48;;;;;;;24.13;22.93;;;;;;;;;;5021207;28;20451;-69
2021/07/11 05:14:15;;;;;;;25.10;23.67;;;;;;;;;;5033780;28;20477;-68
2021/07/11 05:16:42;;;;;;;25.70;24.30;;;;;;;;;;5020010;28;20970;-68
2021/07/11 05:19:09;;;;;;;26.03;24.40;;;;;;;;;;5015632;28;20496;-70
2021/07/11 05:21:37;;;;;;;25.47;24.07;;;;;;;;;;5014650;28;20450;-69
2021/07/11 05:24:04;;;;;;;25.27;23.97;;;;;;;;;;5014815;28;20485;-70
2021/07/11 05:26:31;;;;;;;26.77;24.47;;;;;;;;;;5015813;28;20457;-69
2021/07/11 05:29:00;;;;;;;25.70;24.10;;;;;;;;;;5015282;28;20825;-68
2021/07/11 05:31:27;;;;;;;25.17;23.67;;;;;;;;;;5015913;28;20460;-69
2021/07/11 05:33:54;;;;;;;25.40;23.90;;;;;;;;;;5015098;28;20466;-70
2021/07/11 05:36:21;;;;;;;26.43;24.83;;;;;;;;;;5015767;28;20442;-68
2021/07/11 05:38:48;;;;;;;26.30;24.57;;;;;;;;;;5014208;28;21103;-69
2021/07/11 05:41:15;;;;;;;25.40;24.00;;;;;;;;;;5014759;28;20454;-68
2021/07/11 05:43:43;;;;;;;26.30;24.80;;;;;;;;;;5017664;28;20948;-71
2021/07/11 05:46:12;;;;;;;25.50;24.20;;;;;;;;;;5027796;28;20454;-69
2021/07/11 05:48:39;;;;;;;25.53;24.00;;;;;;;;;;5015422;28;20453;-69
2021/07/11 05:51:06;;;;;;;26.63;25.17;;;;;;;;;;5033999;28;20478;-68
2021/07/11 05:53:33;;;;;;;26.27;24.87;;;;;;;;;;5034594;28;20452;-69
2021/07/11 05:56:00;;;;;;;27.60;25.80;;;;;;;;;;5018306;28;20457;-69
2021/07/11 05:58:27;;;;;;;27.07;25.67;;;;;;;;;;5014727;28;21030;-69
2021/07/11 06:00:54;;;;;;;26.40;25.00;;;;;;;;;;5027682;28;20459;-69
2021/07/11 06:03:23;;;;;;;25.83;24.23;;;;;;;;;;5033660;28;20455;-69
2021/07/11 06:05:50;;;;;;;25.57;24.27;;;;;;;;;;5033747;28;20925;-69
2021/07/11 06:08:17;;;;;;;25.67;24.17;;;;;;;;;;5033098;28;20459;-69
2021/07/11 06:10:44;;;;;;;26.77;25.27;;;;;;;;;;5034201;28;20449;-69
2021/07/11 06:13:11;;;;;;;25.90;24.57;;;;;;;;;;5016230;28;20460;-69
2021/07/11 06:15:39;;;;;;;25.90;24.40;;;;;;;;;;5015273;28;20473;-68
2021/07/11 06:18:06;;;;;;;25.40;24.00;;;;;;;;;;5025382;28;20456;-69
2021/07/11 06:20:34;;;;;;;26.30;24.80;;;;;;;;;;5028851;28;20453;-69
2021/07/11 06:23:02;;;;;;;25.57;24.03;;;;;;;;;;5014728;28;20459;-69
2021/07/11 06:25:29;;;;;;;25.67;24.17;;;;;;;;;;5019541;28;20488;-69
2021/07/11 06:27:56;;;;;;;26.00;24.33;;;;;;;;;;5030426;28;20913;-69
2021/07/11 06:30:23;;;;;;;25.80;24.00;;;;;;;;;;5026787;28;20461;-71
2021/07/11 06:32:50;;;;;;;25.53;23.97;;;;;;;;;;5028620;28;22124;-69
2021/07/11 06:35:20;;;;;;;26.13;24.23;;;;;;;;;;5033555;28;20473;-70
2021/07/11 06:37:48;;;;;;;26.00;24.50;;;;;;;;;;5032516;28;20479;-69
2021/07/11 06:40:16;;;;;;;25.40;23.80;;;;;;;;;;5033233;28;20499;-69
2021/07/11 06:42:43;;;;;;;25.47;23.83;;;;;;;;;;5032471;28;20465;-70
2021/07/11 06:45:11;;;;;;;24.90;23.30;;;;;;;;;;5052829;28;20484;-70
2021/07/11 06:47:39;;;;;;;26.07;24.47;;;;;;;;;;5045215;28;20457;-71
2021/07/11 06:50:07;;;;;;;26.90;25.40;;;;;;;;;;5033951;28;20803;-70
2021/07/11 06:52:35;;;;;;;26.50;25.00;;;;;;;;;;5029002;28;20517;-72
2021/07/11 06:55:04;;;;;;;27.37;25.57;;;;;;;;;;5033133;28;20496;-70
2021/07/11 06:57:31;;;;;;;25.97;24.50;;;;;;;;;;5031541;28;20469;-70
2021/07/11 06:59:58;;;;;;;27.03;25.17;;;;;;;;;;5031988;28;20501;-72
2021/07/11 07:02:25;;;;;;;26.17;24.77;;;;;;;;;;5024008;28;20455;-69
2021/07/11 07:04:54;;;;;;;26.23;24.83;;;;;;;;;;5014274;28;20469;-72
2021/07/11 07:07:21;;;;;;;26.80;25.30;;;;;;;;;;5029999;28;20464;-69
2021/07/11 07:09:48;;;;;;;27.70;26.10;;;;;;;;;;5013794;28;20457;-72
2021/07/11 07:12:17;;;;;;;27.97;26.40;;;;;;;;;;5026176;28;20465;-69
2021/07/11 07:14:44;;;;;;;26.73;25.23;;;;;;;;;;5031743;28;21093;-69
2021/07/11 07:17:11;;;;;;;24.93;23.60;;;;;;;;;;5030829;28;20448;-69
2021/07/11 07:19:38;;;;;;;25.70;24.30;;;;;;;;;;5032437;28;20480;-69
2021/07/11 07:22:05;;;;;;;24.70;23.40;;;;;;;;;;5020929;28;20457;-74
2021/07/11 07:24:32;;;;;;;26.60;25.20;;;;;;;;;;5030573;28;21011;-69
2021/07/11 07:26:59;;;;;;;26.20;24.80;;;;;;;;;;5030065;28;20492;-69
2021/07/11 07:29:28;;;;;;;24.60;23.23;;;;;;;;;;5030212;28;20467;-72
2021/07/11 07:31:55;;;;;;;24.93;23.43;;;;;;;;;;5030864;28;20458;-70
2021/07/11 07:34:22;;;;;;;24.40;23.00;;;;;;;;;;5028158;28;20999;-69
2021/07/11 07:36:49;;;;;;;24.87;23.47;;;;;;;;;;5029870;28;20464;-69
2021/07/11 07:39:17;;;;;;;24.70;23.40;;;;;;;;;;5025352;28;20847;-68
2021/07/11 07:41:44;;;;;;;24.93;23.53;;;;;;;;;;5030419;28;20842;-68
2021/07/11 07:44:11;;;;;;;23.70;22.30;;;;;;;;;;5029897;28;20484;-69
2021/07/11 07:46:39;;;;;;;24.00;22.67;;;;;;;;;;5030959;28;20810;-69
2021/07/11 07:49:06;;;;;;;24.80;23.40;;;;;;;;;;5030796;28;20464;-68
2021/07/11 07:51:33;;;;;;;25.23;23.73;;;;;;;;;;5031062;28;20448;-69
2021/07/11 07:54:01;;;;;;;24.20;22.33;;;;;;;;;;5029369;28;20489;-68
2021/07/11 07:56:28;;;;;;;24.47;22.73;;;;;;;;;;5029547;28;20464;-70
2021/07/11 07:58:55;;;;;;;24.53;23.10;;;;;;;;;;5029626;28;20987;-71
2021/07/11 08:01:22;;;;;;;23.70;22.40;;;;;;;;;;5030110;28;20465;-69
2021/07/11 08:03:50;;;;;;;24.57;23.10;;;;;;;;;;5029591;28;20846;-68
2021/07/11 08:06:17;;;;;;;22.50;21.33;;;;;;;;;;5030961;28;20455;-70
2021/07/11 08:08:44;;;;;;;23.30;21.80;;;;;;;;;;5030005;28;20472;-69
2021/07/11 08:11:12;;;;;;;22.97;21.70;;;;;;;;;;5029146;28;20854;-70
2021/07/11 08:13:39;;;;;;;23.73;22.43;;;;;;;;;;5029989;28;20468;-70
2021/07/11 08:16:07;;;;;;;23.50;21.97;;;;;;;;;;5029931;28;20459;-69
2021/07/11 08:18:34;;;;;;;23.73;22.43;;;;;;;;;;5013735;28;20465;-69
2021/07/11 08:21:03;;;;;;;22.17;20.97;;;;;;;;;;5030672;28;20809;-69
2021/07/11 08:23:30;;;;;;;24.07;22.73;;;;;;;;;;5028693;28;20464;-69
2021/07/11 08:25:57;;;;;;;22.30;21.10;;;;;;;;;;5023730;28;20476;-69
2021/07/11 08:28:25;;;;;;;24.63;23.03;;;;;;;;;;5027877;28;20472;-69
2021/07/11 08:30:52;;;;;;;23.37;22.07;;;;;;;;;;5029672;28;20467;-69
2021/07/11 08:33:19;;;;;;;23.30;22.00;;;;;;;;;;5030151;28;20814;-69
2021/07/11 08:35:46;;;;;;;23.73;22.53;;;;;;;;;;5030961;28;20546;-69
2021/07/11 08:38:14;;;;;;;23.00;21.80;;;;;;;;;;5033535;28;20460;-69
2021/07/11 08:40:42;;;;;;;23.60;22.30;;;;;;;;;;5032034;28;20487;-69
2021/07/11 08:43:09;;;;;;;22.93;21.73;;;;;;;;;;5032425;28;20472;-68
2021/07/11 08:45:36;;;;;;;23.37;22.13;;;;;;;;;;5034108;28;20475;-69
2021/07/11 08:48:04;;;;;;;23.37;22.17;;;;;;;;;;5032754;28;20464;-69
2021/07/11 08:50:33;;;;;;;24.10;22.90;;;;;;;;;;5032138;28;20461;-69
2021/07/11 08:53:00;;;;;;;23.57;22.37;;;;;;;;;;5032990;28;20481;-69
2021/07/11 08:55:29;;;;;;;25.10;23.70;;;;;;;;;;5032042;28;20488;-68
2021/07/11 08:57:57;;;;;;;23.27;21.90;;;;;;;;;;5032923;28;20469;-69
2021/07/11 09:00:25;;;;;;;23.50;22.30;;;;;;;;;;5033813;28;20481;-69
2021/07/11 09:02:52;;;;;;;23.30;21.90;;;;;;;;;;5032001;28;20502;-68
2021/07/11 09:05:26;;;;;;;22.53;21.33;;;;;;;;;;5032375;28;20479;-68
2021/07/11 09:08:01;;;;;;;23.10;21.90;;;;;;;;;;5027217;28;20469;-69
2021/07/11 09:10:33;;;;;;;22.60;21.40;;;;;;;;;;5024580;28;20446;-69
2021/07/11 09:13:01;;;;;;;22.70;21.60;;;;;;;;;;5028714;28;20468;-67
2021/07/11 09:15:29;;;;;;;22.40;21.10;;;;;;;;;;5033171;28;20468;-67
2021/07/11 09:17:57;;;;;;;22.53;21.33;;;;;;;;;;5023901;28;20472;-67
2021/07/11 09:20:24;;;;;;;21.40;20.30;;;;;;;;;;5029158;28;20487;-67
2021/07/11 09:22:57;;;;;;;22.23;21.00;;;;;;;;;;5018088;28;20526;-67
2021/07/11 09:25:24;;;;;;;21.10;20.10;;;;;;;;;;5017738;28;21017;-67
2021/07/11 09:27:52;;;;;;;21.50;20.30;;;;;;;;;;5032752;28;20456;-68
2021/07/11 09:30:19;;;;;;;22.00;20.90;;;;;;;;;;5029296;28;20453;-68
2021/07/11 09:32:50;;;;;;;21.37;20.27;;;;;;;;;;5028970;28;20469;-70
2021/07/11 09:35:18;;;;;;;22.53;21.43;;;;;;;;;;5031967;28;20494;-70
2021/07/11 09:37:47;;;;;;;22.63;21.40;;;;;;;;;;5031885;28;20465;-70
2021/07/11 09:40:15;;;;;;;23.90;22.50;;;;;;;;;;5023088;28;20481;-70
2021/07/11 09:42:43;;;;;;;23.47;22.27;;;;;;;;;;5017426;28;20461;-70
2021/07/11 09:45:17;;;;;;;23.20;21.97;;;;;;;;;;5033487;28;20475;-70
2021/07/11 09:47:45;;;;;;;23.07;21.87;;;;;;;;;;5031184;28;20468;-70
2021/07/11 09:50:13;;;;;;;23.10;21.90;;;;;;;;;;5033247;28;20440;-70
2021/07/11 09:52:41;;;;;;;23.00;21.90;;;;;;;;;;5031545;28;20456;-70
2021/07/11 09:55:10;;;;;;;23.83;22.63;;;;;;;;;;5030375;28;20488;-70
2021/07/11 09:57:38;;;;;;;23.37;22.17;;;;;;;;;;5028983;28;20633;-70
2021/07/11 10:00:08;;;;;;;24.17;22.87;;;;;;;;;;5031848;28;20513;-69
2021/07/11 10:02:36;;;;;;;23.43;22.23;;;;;;;;;;5030493;28;20461;-70
2021/07/11 10:05:04;;;;;;;23.50;22.37;;;;;;;;;;5018784;28;20485;-70
2021/07/11 10:07:32;;;;;;;24.10;22.70;;;;;;;;;;5029412;28;20472;-68
2021/07/11 10:10:00;;;;;;;24.80;23.60;;;;;;;;;;5022243;28;20453;-69
2021/07/11 10:12:27;;;;;;;24.43;23.23;;;;;;;;;;5017652;28;20449;-70
2021/07/11 10:14:54;;;;;;;24.90;23.50;;;;;;;;;;5012702;28;20474;-70
2021/07/11 10:17:21;;;;;;;24.10;22.90;;;;;;;;;;5013326;28;20450;-70
2021/07/11 10:19:51;;;;;;;24.20;23.00;;;;;;;;;;5012755;28;21043;-70
2021/07/11 10:22:19;;;;;;;23.87;22.60;;;;;;;;;;5012253;28;20450;-70
2021/07/11 10:27:19;;;;;;;24.00;22.80;;;;;;;;;;5045727;28;21026;-65
2021/07/11 10:29:47;;;;;;;24.97;23.67;;;;;;;;;;5051954;28;20950;-66
2021/07/11 10:32:21;;;;;;;23.93;22.63;;;;;;;;;;5041430;28;20448;-65
2021/07/11 10:34:50;;;;;;;25.33;23.93;;;;;;;;;;5051622;28;20830;-65
2021/07/11 10:37:22;;;;;;;25.70;24.30;;;;;;;;;;5051895;28;20448;-65
2021/07/11 10:39:52;;;;;;;25.40;24.10;;;;;;;;;;5052305;28;20743;-64
2021/07/11 10:42:28;;;;;;;24.70;23.43;;;;;;;;;;5051780;28;20448;-64
2021/07/11 10:45:02;;;;;;;24.10;22.90;;;;;;;;;;5050252;28;20447;-64
2021/07/11 10:47:29;;;;;;;25.37;24.00;;;;;;;;;;5067013;28;20450;-64
2021/07/11 10:49:57;;;;;;;24.87;23.60;;;;;;;;;;5071799;28;20443;-64
2021/07/11 10:52:25;;;;;;;24.80;23.50;;;;;;;;;;5052901;28;20459;-64
2021/07/11 10:54:53;;;;;;;25.80;24.50;;;;;;;;;;5051743;28;20447;-64
2021/07/11 10:57:27;;;;;;;25.80;24.50;;;;;;;;;;5051726;28;20450;-64
2021/07/11 10:59:54;;;;;;;25.40;24.10;;;;;;;;;;5050499;28;20833;-64
2021/07/11 11:02:22;;;;;;;26.03;24.73;;;;;;;;;;5050723;28;20459;-64
2021/07/11 11:05:00;;;;;;;25.90;24.60;;;;;;;;;;5051888;28;20810;-64
2021/07/11 11:07:39;;;;;;;25.67;24.33;;;;;;;;;;5051707;28;20451;-64
2021/07/11 11:10:06;;;;;;;25.73;24.33;;;;;;;;;;5051356;28;20424;-64
2021/07/11 11:12:33;;;;;;;26.00;24.60;;;;;;;;;;5050977;28;20822;-64
2021/07/11 11:15:01;;;;;;;25.77;24.37;;;;;;;;;;5050605;28;20452;-64
2021/07/11 11:17:29;;;;;;;25.00;23.60;;;;;;;;;;5051687;28;20520;-64
2021/07/11 11:19:57;;;;;;;25.30;24.00;;;;;;;;;;5051369;28;20853;-64
2021/07/11 11:22:25;;;;;;;25.00;23.80;;;;;;;;;;5051187;28;20447;-64
2021/07/11 11:24:52;;;;;;;24.13;22.80;;;;;;;;;;5051229;28;20451;-64
2021/07/11 11:27:30;;;;;;;25.60;24.30;;;;;;;;;;5050721;28;20462;-65
2021/07/11 11:29:57;;;;;;;26.97;25.57;;;;;;;;;;5050880;28;20800;-64
2021/07/11 11:32:28;;;;;;;25.60;24.30;;;;;;;;;;5051490;28;20444;-64
2021/07/11 11:34:55;;;;;;;26.03;24.73;;;;;;;;;;5050857;28;20448;-64
2021/07/11 11:37:22;;;;;;;25.17;23.87;;;;;;;;;;5037631;28;20441;-65
2021/07/11 11:39:53;;;;;;;26.17;24.87;;;;;;;;;;5033860;28;20453;-65
2021/07/11 11:42:22;;;;;;;24.83;23.63;;;;;;;;;;5051347;28;20434;-65
2021/07/11 11:44:49;;;;;;;26.37;24.97;;;;;;;;;;5051279;28;20448;-65
2021/07/11 11:47:16;;;;;;;25.83;24.50;;;;;;;;;;5051601;28;20451;-65
2021/07/11 11:49:43;;;;;;;25.87;24.57;;;;;;;;;;5051411;28;20444;-64
2021/07/11 11:52:10;;;;;;;24.50;23.20;;;;;;;;;;5050786;28;20444;-65
2021/07/11 11:54:38;;;;;;;26.00;24.53;;;;;;;;;;5050773;28;20451;-64
2021/07/11 11:57:07;;;;;;;26.43;24.97;;;;;;;;;;5050322;28;20471;-64
2021/07/11 11:59:35;;;;;;;26.43;25.00;;;;;;;;;;5051286;28;20452;-64
2021/07/11 12:02:02;;;;;;;27.33;25.80;;;;;;;;;;5050897;28;20479;-65
2021/07/11 12:04:31;;;;;;;26.07;24.57;;;;;;;;;;5051460;28;20451;-64
2021/07/11 12:06:58;;;;;;;25.30;24.10;;;;;;;;;;5050991;28;20471;-64
2021/07/11 12:09:26;;;;;;;26.00;24.50;;;;;;;;;;5051258;28;20451;-64
2021/07/11 12:11:57;;;;;;;25.70;24.40;;;;;;;;;;5052541;28;20451;-64
2021/07/11 12:14:26;;;;;;;24.93;23.63;;;;;;;;;;5055061;28;20443;-65
2021/07/11 12:16:57;;;;;;;25.40;24.00;;;;;;;;;;5054664;28;20498;-64
2021/07/11 12:19:24;;;;;;;25.90;24.60;;;;;;;;;;5054692;28;20501;-64
2021/07/11 12:21:53;;;;;;;25.63;24.23;;;;;;;;;;5054771;28;20494;-64
2021/07/11 12:24:23;;;;;;;25.40;24.10;;;;;;;;;;5054499;28;20451;-64
2021/07/11 12:26:53;;;;;;;25.30;24.03;;;;;;;;;;5054344;28;20484;-65
2021/07/11 12:29:28;;;;;;;26.23;24.73;;;;;;;;;;5053702;28;20547;-64
2021/07/11 12:31:58;;;;;;;25.27;24.07;;;;;;;;;;5054276;28;20443;-64
2021/07/11 12:34:25;;;;;;;25.07;23.87;;;;;;;;;;5054323;28;20453;-65
2021/07/11 12:36:53;;;;;;;25.30;24.00;;;;;;;;;;5054315;28;20550;-64
2021/07/11 12:39:21;;;;;;;25.27;23.97;;;;;;;;;;5054309;28;20454;-65
2021/07/11 12:41:48;;;;;;;24.93;23.63;;;;;;;;;;5053562;28;20523;-65
2021/07/11 12:44:17;;;;;;;24.83;23.50;;;;;;;;;;5054662;28;20452;-64
2021/07/11 12:46:44;;;;;;;24.83;23.53;;;;;;;;;;5054268;28;20919;-64
2021/07/11 12:49:14;;;;;;;25.27;23.93;;;;;;;;;;5053468;28;20463;-64
2021/07/11 12:51:42;;;;;;;25.23;23.93;;;;;;;;;;5053123;28;20454;-64
2021/07/11 12:54:14;;;;;;;25.70;24.40;;;;;;;;;;5054621;28;20451;-64
2021/07/11 12:56:51;;;;;;;25.90;24.50;;;;;;;;;;5053891;28;20479;-64
2021/07/11 12:59:26;;;;;;;32.63;30.63;;;;;;;;;;5054123;28;20474;-63
2021/07/11 13:02:00;;;;;;;33.90;31.80;;;;;;;;;;5067809;28;20473;-62
2021/07/11 13:04:28;;;;;;;34.73;32.83;;;;;;;;;;5066363;28;20444;-63
2021/07/11 13:07:01;;;;;;;40.60;38.30;;;;;;;;;;5069344;28;20475;-65
2021/07/11 13:09:28;;;;;;;41.30;38.50;;;;;;;;;;5073546;28;20447;-66
2021/07/11 13:11:55;;;;;;;42.17;39.87;;;;;;;;;;5069140;28;20443;-65
2021/07/11 13:14:23;;;;;;;39.77;37.20;;;;;;;;;;5049755;28;20534;-66
2021/07/11 13:16:50;;;;;;;42.33;39.83;;;;;;;;;;5053528;28;20529;-66
2021/07/11 13:19:17;;;;;;;48.30;45.30;;;;;;;;;;5053861;28;20483;-66
2021/07/11 13:21:46;;;;;;;47.70;44.90;;;;;;;;;;5057251;28;20485;-66
2021/07/11 13:24:13;;;;;;;42.93;40.37;;;;;;;;;;5056939;28;20447;-66
2021/07/11 13:26:41;;;;;;;57.70;54.50;;;;;;;;;;5053404;28;20483;-66
2021/07/11 13:29:08;;;;;;;60.77;57.47;;;;;;;;;;5052805;28;20454;-66
2021/07/11 13:31:35;;;;;;;63.97;60.67;;;;;;;;;;5053629;28;20448;-68
2021/07/11 13:34:02;;;;;;;56.87;53.67;;;;;;;;;;5053443;28;20456;-66
2021/07/11 13:36:29;;;;;;;54.97;51.90;;;;;;;;;;5056950;28;20475;-66
2021/07/11 13:38:59;;;;;;;40.37;38.07;;;;;;;;;;5053520;28;20448;-65
2021/07/11 13:41:29;;;;;;;31.53;29.63;;;;;;;;;;5056308;28;20490;-66
2021/07/11 13:43:56;;;;;;;31.37;29.30;;;;;;;;;;5052926;28;20530;-65
2021/07/11 13:46:23;;;;;;;32.60;30.70;;;;;;;;;;5067705;28;20471;-69
2021/07/11 13:48:50;;;;;;;30.70;28.90;;;;;;;;;;5073045;28;20805;-66
2021/07/11 13:51:18;;;;;;;28.70;27.00;;;;;;;;;;5056206;28;20448;-67
2021/07/11 13:53:45;;;;;;;28.63;27.03;;;;;;;;;;5066340;28;20954;-67
2021/07/11 13:56:13;;;;;;;28.10;26.40;;;;;;;;;;5072293;28;20474;-65
2021/07/11 13:58:40;;;;;;;28.80;27.20;;;;;;;;;;5046549;28;20452;-66
2021/07/11 14:01:08;;;;;;;27.90;26.30;;;;;;;;;;5054800;28;20487;-67
2021/07/11 14:03:35;;;;;;;28.93;27.33;;;;;;;;;;5058679;28;20544;-65
2021/07/11 14:06:02;;;;;;;28.00;26.40;;;;;;;;;;5052740;28;20851;-66
2021/07/11 14:08:30;;;;;;;28.10;26.40;;;;;;;;;;5052352;28;20450;-66
2021/07/11 14:10:58;;;;;;;26.67;25.17;;;;;;;;;;5052473;28;20448;-66
2021/07/11 14:13:26;;;;;;;28.47;26.97;;;;;;;;;;5052464;28;20452;-66
2021/07/11 14:15:54;;;;;;;27.70;26.00;;;;;;;;;;5061248;28;20477;-65
2021/07/11 14:18:21;;;;;;;27.30;25.73;;;;;;;;;;5053029;28;20477;-66
2021/07/11 14:20:49;;;;;;;26.37;24.87;;;;;;;;;;5052646;28;20539;-66
2021/07/11 14:23:17;;;;;;;27.10;25.40;;;;;;;;;;5048257;28;20470;-66